Terminal Aerodrome Forecast
Issued by NWS

Home | Current Version | Previous Version | Graphics & Text | Print | Product List | Glossary On
Versions: 1 2 3 4 5 6 7 8 9 10 11 12 13 14 15 16 17 18 19 20 21 22 23
000
FTUS43 KTOP 221128
TAFFOE
TAF
KFOE 221128Z 2212/2312 21006KT P6SM BKN090
     FM221700 23007KT P6SM -RA VCTS OVC090CB
     FM222200 22009KT P6SM VCTS BKN090CB
     FM230600 27006KT P6SM VCSH BKN050=

USA.gov is the U.S. government's official web portal to all federal, state and local government web resources and services.